TimePST,TemperatureF,Dew PointF,Humidity,Sea Level PressureIn,VisibilityMPH,Wind Direction,Wind SpeedMPH,Gust SpeedMPH,PrecipitationIn,Events,Conditions,WindDirDegrees,DateUTC
12:56 AM,51.1,46.0,83,30.38,10.0,SE,8.1,-,N/A,,Clear,140,2011-11-26 08:56:00
1:56 AM,50.0,46.0,86,30.38,10.0,SE,8.1,-,N/A,,Clear,140,2011-11-26 09:56:00
2:56 AM,50.0,46.4,87,30.37,10.0,SSE,5.8,-,N/A,,Clear,150,2011-11-26 10:56:00
3:56 AM,48.9,46.0,90,30.36,10.0,SE,4.6,-,N/A,,Clear,130,2011-11-26 11:56:00
4:56 AM,48.9,46.0,90,30.35,10.0,SSE,6.9,-,N/A,,Clear,150,2011-11-26 12:56:00
5:56 AM,48.9,46.0,90,30.35,10.0,SSE,6.9,-,N/A,,Clear,160,2011-11-26 13:56:00
6:56 AM,51.1,45.0,80,30.36,10.0,SE,5.8,-,N/A,,Scattered Clouds,130,2011-11-26 14:56:00
7:56 AM,51.1,46.9,86,30.37,10.0,ESE,6.9,-,N/A,,Scattered Clouds,120,2011-11-26 15:56:00
8:56 AM,53.1,46.9,80,30.39,10.0,ESE,6.9,-,N/A,,Scattered Clouds,120,2011-11-26 16:56:00
9:56 AM,55.0,48.0,77,30.38,10.0,SE,4.6,-,N/A,,Scattered Clouds,130,2011-11-26 17:56:00
10:56 AM,55.9,48.0,75,30.37,10.0,East,3.5,-,N/A,,Scattered Clouds,100,2011-11-26 18:56:00
11:56 AM,57.9,48.0,70,30.35,10.0,East,3.5,-,N/A,,Mostly Cloudy,90,2011-11-26 19:56:00
1:56 PM,57.9,50.0,75,30.31,10.0,Calm,Calm,-,N/A,,Scattered Clouds,0,2011-11-26 21:56:00
2:56 PM,57.9,48.0,70,30.29,10.0,Calm,Calm,-,N/A,,Mostly Cloudy,0,2011-11-26 22:56:00
3:56 PM,57.9,48.9,72,30.29,10.0,NNE,3.5,-,N/A,,Mostly Cloudy,20,2011-11-26 23:56:00
4:56 PM,55.9,48.0,75,30.29,10.0,Calm,Calm,-,N/A,,Mostly Cloudy,0,2011-11-27 00:56:00
5:56 PM,55.9,48.9,77,30.31,10.0,North,5.8,-,N/A,,Scattered Clouds,360,2011-11-27 01:56:00
6:56 PM,55.0,48.9,80,30.31,10.0,NE,8.1,-,N/A,,Partly Cloudy,50,2011-11-27 02:56:00
7:56 PM,53.1,46.9,80,30.31,10.0,Calm,Calm,-,N/A,,Partly Cloudy,0,2011-11-27 03:56:00
8:56 PM,52.0,46.9,83,30.31,9.0,Calm,Calm,-,N/A,,Partly Cloudy,0,2011-11-27 04:56:00
9:56 PM,53.1,48.9,86,30.30,9.0,ENE,9.2,-,N/A,,Partly Cloudy,70,2011-11-27 05:56:00
10:56 PM,48.9,46.0,90,30.30,6.0,Calm,Calm,-,N/A,,Scattered Clouds,0,2011-11-27 06:56:00
11:56 PM,48.9,46.0,90,30.31,6.0,SSE,3.5,-,N/A,,Partly Cloudy,150,2011-11-27 07:56:00